METAR Data
IDs: Format: Raw Decoded Include TAF

Data at: 1504 UTC 27 Nov 2021

EGBB 271450Z 33025G36KT 9999 BKN037 03/M02 Q1002

EGBJ 271450Z 35021G31KT 9999 BKN028 05/M02 Q1003

EGVN 271450Z 33021G31KT 9999 FEW030 BKN035 04/M02 Q1001 NOSIG RMK BLU BLU

EGTK 271450Z 33023G35KT 9999 SCT028 BKN032 04/M01 Q1001

No METAR found for EGWC

EGTC 271450Z 33023KT 9999 VCSH BKN020 BKN027 04/00 Q0998

EGNX 271450Z 33020G35KT 9999 BKN029 03/M02 Q1001